sensor_id;sensor_type;location;lat;lon;timestamp;P1;durP1;ratioP1;P2;durP2;ratioP2
10469;SDS011;5282;47.052;15.458;2023-07-13T00:00:19;1.30;;;1.30;;
10469;SDS011;5282;47.052;15.458;2023-07-13T00:02:49;0.93;;;0.93;;
10469;SDS011;5282;47.052;15.458;2023-07-13T00:05:18;1.50;;;1.03;;
10469;SDS011;5282;47.052;15.458;2023-07-13T00:07:47;1.23;;;1.23;;
10469;SDS011;5282;47.052;15.458;2023-07-13T00:10:14;1.10;;;1.10;;
10469;SDS011;5282;47.052;15.458;2023-07-13T00:12:41;1.10;;;1.10;;
10469;SDS011;5282;47.052;15.458;2023-07-13T00:15:10;1.20;;;1.20;;
10469;SDS011;5282;47.052;15.458;2023-07-13T00:17:39;1.20;;;1.13;;
10469;SDS011;5282;47.052;15.458;2023-07-13T00:20:06;0.93;;;0.93;;
10469;SDS011;5282;47.052;15.458;2023-07-13T00:22:34;1.13;;;1.00;;
10469;SDS011;5282;47.052;15.458;2023-07-13T00:25:03;0.90;;;0.90;;
10469;SDS011;5282;47.052;15.458;2023-07-13T00:27:31;1.33;;;0.97;;
10469;SDS011;5282;47.052;15.458;2023-07-13T00:29:58;0.83;;;0.83;;
10469;SDS011;5282;47.052;15.458;2023-07-13T00:32:25;0.90;;;0.90;;
10469;SDS011;5282;47.052;15.458;2023-07-13T00:34:51;1.23;;;1.00;;
10469;SDS011;5282;47.052;15.458;2023-07-13T00:37:18;1.27;;;1.00;;
10469;SDS011;5282;47.052;15.458;2023-07-13T00:39:46;2.20;;;0.90;;
10469;SDS011;5282;47.052;15.458;2023-07-13T00:42:14;1.00;;;1.00;;
10469;SDS011;5282;47.052;15.458;2023-07-13T00:44:41;1.10;;;1.10;;
10469;SDS011;5282;47.052;15.458;2023-07-13T00:47:08;0.80;;;0.80;;
10469;SDS011;5282;47.052;15.458;2023-07-13T00:49:35;1.00;;;1.00;;
10469;SDS011;5282;47.052;15.458;2023-07-13T00:52:03;0.90;;;0.90;;
10469;SDS011;5282;47.052;15.458;2023-07-13T00:54:34;1.13;;;1.13;;
10469;SDS011;5282;47.052;15.458;2023-07-13T00:57:04;1.70;;;0.93;;
10469;SDS011;5282;47.052;15.458;2023-07-13T00:59:35;1.00;;;1.00;;
10469;SDS011;5282;47.052;15.458;2023-07-13T01:02:06;0.90;;;0.90;;
10469;SDS011;5282;47.052;15.458;2023-07-13T01:04:33;0.83;;;0.83;;
10469;SDS011;5282;47.052;15.458;2023-07-13T01:07:00;0.90;;;0.90;;
10469;SDS011;5282;47.052;15.458;2023-07-13T01:09:27;0.80;;;0.80;;
10469;SDS011;5282;47.052;15.458;2023-07-13T01:11:54;0.90;;;0.90;;
10469;SDS011;5282;47.052;15.458;2023-07-13T01:14:21;0.90;;;0.90;;
10469;SDS011;5282;47.052;15.458;2023-07-13T01:16:49;1.00;;;1.00;;
10469;SDS011;5282;47.052;15.458;2023-07-13T01:19:21;0.93;;;0.90;;
10469;SDS011;5282;47.052;15.458;2023-07-13T01:22:02;0.90;;;0.90;;
10469;SDS011;5282;47.052;15.458;2023-07-13T01:24:30;1.03;;;0.83;;
10469;SDS011;5282;47.052;15.458;2023-07-13T01:26:59;1.00;;;1.00;;
10469;SDS011;5282;47.052;15.458;2023-07-13T01:29:26;1.20;;;1.20;;
10469;SDS011;5282;47.052;15.458;2023-07-13T01:31:53;2.20;;;1.30;;
10469;SDS011;5282;47.052;15.458;2023-07-13T01:34:20;1.40;;;1.30;;
10469;SDS011;5282;47.052;15.458;2023-07-13T01:36:47;1.27;;;1.27;;
10469;SDS011;5282;47.052;15.458;2023-07-13T01:39:15;1.83;;;1.50;;
10469;SDS011;5282;47.052;15.458;2023-07-13T01:41:42;1.50;;;1.40;;
10469;SDS011;5282;47.052;15.458;2023-07-13T01:44:09;1.50;;;1.50;;
10469;SDS011;5282;47.052;15.458;2023-07-13T01:46:36;1.60;;;1.50;;
10469;SDS011;5282;47.052;15.458;2023-07-13T01:49:02;1.90;;;1.80;;
10469;SDS011;5282;47.052;15.458;2023-07-13T01:51:29;2.10;;;2.00;;
10469;SDS011;5282;47.052;15.458;2023-07-13T01:53:58;2.10;;;2.00;;
10469;SDS011;5282;47.052;15.458;2023-07-13T01:56:27;2.47;;;2.03;;
10469;SDS011;5282;47.052;15.458;2023-07-13T01:58:54;1.73;;;1.63;;
10469;SDS011;5282;47.052;15.458;2023-07-13T02:01:22;1.83;;;1.83;;
10469;SDS011;5282;47.052;15.458;2023-07-13T02:03:49;1.83;;;1.83;;
10469;SDS011;5282;47.052;15.458;2023-07-13T02:06:16;2.03;;;1.93;;
10469;SDS011;5282;47.052;15.458;2023-07-13T02:08:44;2.07;;;1.97;;
10469;SDS011;5282;47.052;15.458;2023-07-13T02:11:10;1.90;;;1.80;;
10469;SDS011;5282;47.052;15.458;2023-07-13T02:13:39;1.90;;;1.80;;
10469;SDS011;5282;47.052;15.458;2023-07-13T02:16:06;1.93;;;1.80;;
10469;SDS011;5282;47.052;15.458;2023-07-13T02:18:33;1.90;;;1.80;;
10469;SDS011;5282;47.052;15.458;2023-07-13T02:21:03;1.70;;;1.60;;
10469;SDS011;5282;47.052;15.458;2023-07-13T02:23:30;3.03;;;2.07;;
10469;SDS011;5282;47.052;15.458;2023-07-13T02:25:58;2.07;;;1.97;;
10469;SDS011;5282;47.052;15.458;2023-07-13T02:28:28;1.73;;;1.73;;
10469;SDS011;5282;47.052;15.458;2023-07-13T02:31:03;3.67;;;2.40;;
10469;SDS011;5282;47.052;15.458;2023-07-13T02:33:30;2.17;;;1.77;;
10469;SDS011;5282;47.052;15.458;2023-07-13T02:35:57;2.37;;;2.27;;
10469;SDS011;5282;47.052;15.458;2023-07-13T02:38:27;2.37;;;2.17;;
10469;SDS011;5282;47.052;15.458;2023-07-13T02:40:55;2.00;;;1.90;;
10469;SDS011;5282;47.052;15.458;2023-07-13T02:43:22;1.90;;;1.80;;
10469;SDS011;5282;47.052;15.458;2023-07-13T02:45:48;2.07;;;1.93;;
10469;SDS011;5282;47.052;15.458;2023-07-13T02:48:17;2.10;;;1.93;;
10469;SDS011;5282;47.052;15.458;2023-07-13T02:50:45;2.03;;;1.93;;
10469;SDS011;5282;47.052;15.458;2023-07-13T02:53:12;1.70;;;1.70;;
10469;SDS011;5282;47.052;15.458;2023-07-13T02:55:39;1.83;;;1.73;;
10469;SDS011;5282;47.052;15.458;2023-07-13T02:58:06;2.73;;;1.90;;
10469;SDS011;5282;47.052;15.458;2023-07-13T03:00:33;2.17;;;1.97;;
10469;SDS011;5282;47.052;15.458;2023-07-13T03:03:00;2.20;;;2.10;;
10469;SDS011;5282;47.052;15.458;2023-07-13T03:05:28;3.13;;;2.20;;
10469;SDS011;5282;47.052;15.458;2023-07-13T03:07:54;2.20;;;2.10;;
10469;SDS011;5282;47.052;15.458;2023-07-13T03:10:21;1.90;;;1.90;;
10469;SDS011;5282;47.052;15.458;2023-07-13T03:12:48;2.37;;;2.20;;
10469;SDS011;5282;47.052;15.458;2023-07-13T03:15:15;2.50;;;2.30;;
10469;SDS011;5282;47.052;15.458;2023-07-13T03:17:42;2.60;;;2.40;;
10469;SDS011;5282;47.052;15.458;2023-07-13T03:20:10;2.67;;;2.47;;
10469;SDS011;5282;47.052;15.458;2023-07-13T03:22:38;2.50;;;2.40;;
10469;SDS011;5282;47.052;15.458;2023-07-13T03:25:06;2.43;;;2.23;;
10469;SDS011;5282;47.052;15.458;2023-07-13T03:27:33;2.30;;;2.20;;
10469;SDS011;5282;47.052;15.458;2023-07-13T03:30:00;3.10;;;2.63;;
10469;SDS011;5282;47.052;15.458;2023-07-13T03:32:27;2.30;;;2.20;;
10469;SDS011;5282;47.052;15.458;2023-07-13T03:34:53;2.30;;;2.20;;
10469;SDS011;5282;47.052;15.458;2023-07-13T03:37:21;2.47;;;2.37;;
10469;SDS011;5282;47.052;15.458;2023-07-13T03:39:49;2.77;;;2.60;;
10469;SDS011;5282;47.052;15.458;2023-07-13T03:42:16;2.30;;;2.20;;
10469;SDS011;5282;47.052;15.458;2023-07-13T03:44:43;2.50;;;2.30;;
10469;SDS011;5282;47.052;15.458;2023-07-13T03:47:11;3.10;;;2.70;;
10469;SDS011;5282;47.052;15.458;2023-07-13T03:49:38;2.50;;;2.40;;
10469;SDS011;5282;47.052;15.458;2023-07-13T03:52:05;2.60;;;2.40;;
10469;SDS011;5282;47.052;15.458;2023-07-13T03:54:32;2.83;;;2.63;;
10469;SDS011;5282;47.052;15.458;2023-07-13T03:57:00;2.30;;;2.20;;
10469;SDS011;5282;47.052;15.458;2023-07-13T03:59:27;2.50;;;2.40;;
10469;SDS011;5282;47.052;15.458;2023-07-13T04:01:54;2.53;;;2.43;;
10469;SDS011;5282;47.052;15.458;2023-07-13T04:04:21;2.30;;;2.20;;
10469;SDS011;5282;47.052;15.458;2023-07-13T04:06:48;2.70;;;2.60;;
10469;SDS011;5282;47.052;15.458;2023-07-13T04:09:14;2.67;;;2.47;;
10469;SDS011;5282;47.052;15.458;2023-07-13T04:11:41;2.73;;;2.53;;
10469;SDS011;5282;47.052;15.458;2023-07-13T04:14:09;2.53;;;2.33;;
10469;SDS011;5282;47.052;15.458;2023-07-13T04:16:36;2.60;;;2.50;;
10469;SDS011;5282;47.052;15.458;2023-07-13T04:19:03;2.73;;;2.50;;
10469;SDS011;5282;47.052;15.458;2023-07-13T04:21:30;2.60;;;2.40;;
10469;SDS011;5282;47.052;15.458;2023-07-13T04:23:58;2.07;;;1.97;;
10469;SDS011;5282;47.052;15.458;2023-07-13T04:26:26;2.27;;;2.17;;
10469;SDS011;5282;47.052;15.458;2023-07-13T04:28:52;3.27;;;2.67;;
10469;SDS011;5282;47.052;15.458;2023-07-13T04:31:23;2.40;;;2.30;;
10469;SDS011;5282;47.052;15.458;2023-07-13T04:33:50;2.80;;;2.70;;
10469;SDS011;5282;47.052;15.458;2023-07-13T04:36:17;2.13;;;2.03;;
10469;SDS011;5282;47.052;15.458;2023-07-13T04:38:43;2.13;;;2.03;;
10469;SDS011;5282;47.052;15.458;2023-07-13T04:41:13;2.00;;;1.97;;
10469;SDS011;5282;47.052;15.458;2023-07-13T04:43:41;2.13;;;2.03;;
10469;SDS011;5282;47.052;15.458;2023-07-13T04:46:10;1.97;;;1.90;;
10469;SDS011;5282;47.052;15.458;2023-07-13T04:48:41;2.27;;;2.07;;
10469;SDS011;5282;47.052;15.458;2023-07-13T04:51:08;2.10;;;2.00;;
10469;SDS011;5282;47.052;15.458;2023-07-13T04:53:36;1.90;;;1.80;;
10469;SDS011;5282;47.052;15.458;2023-07-13T04:56:03;2.43;;;2.33;;
10469;SDS011;5282;47.052;15.458;2023-07-13T04:58:30;2.27;;;2.17;;
10469;SDS011;5282;47.052;15.458;2023-07-13T05:00:59;2.23;;;2.13;;
10469;SDS011;5282;47.052;15.458;2023-07-13T05:03:26;2.10;;;2.00;;
10469;SDS011;5282;47.052;15.458;2023-07-13T05:05:58;1.80;;;1.80;;
10469;SDS011;5282;47.052;15.458;2023-07-13T05:08:26;1.90;;;1.90;;
10469;SDS011;5282;47.052;15.458;2023-07-13T05:10:53;1.80;;;1.70;;
10469;SDS011;5282;47.052;15.458;2023-07-13T05:13:20;1.87;;;1.87;;
10469;SDS011;5282;47.052;15.458;2023-07-13T05:15:47;2.47;;;2.00;;
10469;SDS011;5282;47.052;15.458;2023-07-13T05:18:22;1.90;;;1.80;;
10469;SDS011;5282;47.052;15.458;2023-07-13T05:20:56;1.70;;;1.70;;
10469;SDS011;5282;47.052;15.458;2023-07-13T05:23:25;2.03;;;1.93;;
10469;SDS011;5282;47.052;15.458;2023-07-13T05:25:55;2.30;;;1.90;;
10469;SDS011;5282;47.052;15.458;2023-07-13T05:28:21;2.00;;;1.90;;
10469;SDS011;5282;47.052;15.458;2023-07-13T05:30:51;2.00;;;1.90;;
10469;SDS011;5282;47.052;15.458;2023-07-13T05:33:19;1.90;;;1.90;;
10469;SDS011;5282;47.052;15.458;2023-07-13T05:35:46;1.70;;;1.70;;
10469;SDS011;5282;47.052;15.458;2023-07-13T05:38:15;2.30;;;2.20;;
10469;SDS011;5282;47.052;15.458;2023-07-13T05:40:42;2.10;;;1.90;;
10469;SDS011;5282;47.052;15.458;2023-07-13T05:43:09;1.97;;;1.97;;
10469;SDS011;5282;47.052;15.458;2023-07-13T05:45:36;1.70;;;1.70;;
10469;SDS011;5282;47.052;15.458;2023-07-13T05:48:03;2.03;;;2.00;;
10469;SDS011;5282;47.052;15.458;2023-07-13T05:50:30;2.03;;;2.00;;
10469;SDS011;5282;47.052;15.458;2023-07-13T05:52:57;2.20;;;2.10;;
10469;SDS011;5282;47.052;15.458;2023-07-13T05:55:26;2.17;;;2.07;;
10469;SDS011;5282;47.052;15.458;2023-07-13T05:57:53;2.00;;;1.90;;
10469;SDS011;5282;47.052;15.458;2023-07-13T06:00:19;2.00;;;1.90;;
10469;SDS011;5282;47.052;15.458;2023-07-13T06:02:47;1.80;;;1.80;;
10469;SDS011;5282;47.052;15.458;2023-07-13T06:05:13;1.90;;;1.90;;
10469;SDS011;5282;47.052;15.458;2023-07-13T06:07:40;2.93;;;1.90;;
10469;SDS011;5282;47.052;15.458;2023-07-13T06:10:08;1.90;;;1.87;;
10469;SDS011;5282;47.052;15.458;2023-07-13T06:12:36;2.03;;;1.80;;
10469;SDS011;5282;47.052;15.458;2023-07-13T06:15:03;1.93;;;1.83;;
10469;SDS011;5282;47.052;15.458;2023-07-13T06:17:31;1.90;;;1.80;;
10469;SDS011;5282;47.052;15.458;2023-07-13T06:19:58;1.90;;;1.80;;
10469;SDS011;5282;47.052;15.458;2023-07-13T06:22:25;1.93;;;1.83;;
10469;SDS011;5282;47.052;15.458;2023-07-13T06:24:52;1.67;;;1.60;;
10469;SDS011;5282;47.052;15.458;2023-07-13T06:27:21;1.80;;;1.80;;
10469;SDS011;5282;47.052;15.458;2023-07-13T06:29:49;1.87;;;1.80;;
10469;SDS011;5282;47.052;15.458;2023-07-13T06:32:16;1.63;;;1.63;;
10469;SDS011;5282;47.052;15.458;2023-07-13T06:34:45;1.80;;;1.80;;
10469;SDS011;5282;47.052;15.458;2023-07-13T06:37:12;1.73;;;1.70;;
10469;SDS011;5282;47.052;15.458;2023-07-13T06:39:39;1.63;;;1.53;;
10469;SDS011;5282;47.052;15.458;2023-07-13T06:42:06;1.90;;;1.80;;
10469;SDS011;5282;47.052;15.458;2023-07-13T06:44:33;1.70;;;1.70;;
10469;SDS011;5282;47.052;15.458;2023-07-13T06:47:01;1.70;;;1.67;;
10469;SDS011;5282;47.052;15.458;2023-07-13T06:49:28;1.60;;;1.60;;
10469;SDS011;5282;47.052;15.458;2023-07-13T06:51:55;3.23;;;1.33;;
10469;SDS011;5282;47.052;15.458;2023-07-13T06:54:22;3.00;;;1.40;;
10469;SDS011;5282;47.052;15.458;2023-07-13T06:56:48;2.70;;;1.67;;
10469;SDS011;5282;47.052;15.458;2023-07-13T06:59:15;1.50;;;1.50;;
10469;SDS011;5282;47.052;15.458;2023-07-13T07:01:42;1.30;;;1.30;;
10469;SDS011;5282;47.052;15.458;2023-07-13T07:04:10;1.20;;;1.20;;
10469;SDS011;5282;47.052;15.458;2023-07-13T07:06:37;1.20;;;1.20;;
10469;SDS011;5282;47.052;15.458;2023-07-13T07:09:04;1.00;;;1.00;;
10469;SDS011;5282;47.052;15.458;2023-07-13T07:11:31;1.40;;;1.40;;
10469;SDS011;5282;47.052;15.458;2023-07-13T07:14:00;1.60;;;1.50;;
10469;SDS011;5282;47.052;15.458;2023-07-13T07:16:27;2.40;;;1.47;;
10469;SDS011;5282;47.052;15.458;2023-07-13T07:18:54;1.10;;;1.10;;
10469;SDS011;5282;47.052;15.458;2023-07-13T07:21:22;1.10;;;1.10;;
10469;SDS011;5282;47.052;15.458;2023-07-13T07:23:49;1.47;;;1.47;;
10469;SDS011;5282;47.052;15.458;2023-07-13T07:26:16;1.30;;;1.30;;
10469;SDS011;5282;47.052;15.458;2023-07-13T07:28:44;1.00;;;1.00;;
10469;SDS011;5282;47.052;15.458;2023-07-13T07:31:10;2.37;;;1.23;;
10469;SDS011;5282;47.052;15.458;2023-07-13T07:33:37;0.90;;;0.90;;
10469;SDS011;5282;47.052;15.458;2023-07-13T07:36:04;1.10;;;1.10;;
10469;SDS011;5282;47.052;15.458;2023-07-13T07:38:33;0.83;;;0.83;;
10469;SDS011;5282;47.052;15.458;2023-07-13T07:41:02;0.93;;;0.93;;
10469;SDS011;5282;47.052;15.458;2023-07-13T07:43:30;1.20;;;1.20;;
10469;SDS011;5282;47.052;15.458;2023-07-13T07:45:57;1.10;;;1.10;;
10469;SDS011;5282;47.052;15.458;2023-07-13T07:48:24;1.00;;;1.00;;
10469;SDS011;5282;47.052;15.458;2023-07-13T07:50:51;0.83;;;0.83;;
10469;SDS011;5282;47.052;15.458;2023-07-13T07:53:18;1.10;;;1.10;;
10469;SDS011;5282;47.052;15.458;2023-07-13T07:55:49;1.27;;;1.17;;
10469;SDS011;5282;47.052;15.458;2023-07-13T07:58:16;1.00;;;1.00;;
10469;SDS011;5282;47.052;15.458;2023-07-13T08:00:43;1.00;;;1.00;;
10469;SDS011;5282;47.052;15.458;2023-07-13T08:03:10;1.00;;;1.00;;
10469;SDS011;5282;47.052;15.458;2023-07-13T08:05:37;1.10;;;1.10;;
10469;SDS011;5282;47.052;15.458;2023-07-13T08:08:04;1.00;;;1.00;;
10469;SDS011;5282;47.052;15.458;2023-07-13T08:10:31;1.00;;;1.00;;
10469;SDS011;5282;47.052;15.458;2023-07-13T08:12:59;1.10;;;1.10;;
10469;SDS011;5282;47.052;15.458;2023-07-13T08:15:26;1.00;;;1.00;;
10469;SDS011;5282;47.052;15.458;2023-07-13T08:17:53;1.30;;;1.00;;
10469;SDS011;5282;47.052;15.458;2023-07-13T08:20:20;1.00;;;1.00;;
10469;SDS011;5282;47.052;15.458;2023-07-13T08:22:47;0.90;;;0.90;;
10469;SDS011;5282;47.052;15.458;2023-07-13T08:25:14;1.10;;;1.10;;
10469;SDS011;5282;47.052;15.458;2023-07-13T08:27:41;0.95;;;0.90;;
10469;SDS011;5282;47.052;15.458;2023-07-13T08:30:09;1.00;;;1.00;;
10469;SDS011;5282;47.052;15.458;2023-07-13T08:32:36;0.88;;;0.88;;
10469;SDS011;5282;47.052;15.458;2023-07-13T08:35:04;1.05;;;1.05;;
10469;SDS011;5282;47.052;15.458;2023-07-13T08:37:35;0.80;;;0.80;;
10469;SDS011;5282;47.052;15.458;2023-07-13T08:40:02;1.23;;;0.90;;
10469;SDS011;5282;47.052;15.458;2023-07-13T08:42:32;0.80;;;0.80;;
10469;SDS011;5282;47.052;15.458;2023-07-13T08:45:05;0.88;;;0.88;;
10469;SDS011;5282;47.052;15.458;2023-07-13T08:47:40;0.75;;;0.75;;
10469;SDS011;5282;47.052;15.458;2023-07-13T08:50:13;1.20;;;1.20;;
10469;SDS011;5282;47.052;15.458;2023-07-13T08:52:43;0.90;;;0.90;;
10469;SDS011;5282;47.052;15.458;2023-07-13T08:55:12;0.80;;;0.80;;
10469;SDS011;5282;47.052;15.458;2023-07-13T08:57:42;1.20;;;1.20;;
10469;SDS011;5282;47.052;15.458;2023-07-13T09:00:14;0.80;;;0.80;;
10469;SDS011;5282;47.052;15.458;2023-07-13T09:02:44;0.90;;;0.90;;
10469;SDS011;5282;47.052;15.458;2023-07-13T09:05:15;1.10;;;1.10;;
10469;SDS011;5282;47.052;15.458;2023-07-13T09:08:00;7.28;;;1.65;;
10469;SDS011;5282;47.052;15.458;2023-07-13T09:10:36;0.90;;;0.90;;
10469;SDS011;5282;47.052;15.458;2023-07-13T09:13:14;1.23;;;1.13;;
10469;SDS011;5282;47.052;15.458;2023-07-13T09:15:50;0.80;;;0.80;;
10469;SDS011;5282;47.052;15.458;2023-07-13T09:18:21;0.85;;;0.85;;
10469;SDS011;5282;47.052;15.458;2023-07-13T09:20:53;1.02;;;1.02;;
10469;SDS011;5282;47.052;15.458;2023-07-13T09:23:23;0.90;;;0.90;;
10469;SDS011;5282;47.052;15.458;2023-07-13T09:25:57;0.90;;;0.90;;
10469;SDS011;5282;47.052;15.458;2023-07-13T09:28:29;1.00;;;1.00;;
10469;SDS011;5282;47.052;15.458;2023-07-13T09:31:01;0.90;;;0.90;;
10469;SDS011;5282;47.052;15.458;2023-07-13T09:33:33;1.10;;;1.10;;
10469;SDS011;5282;47.052;15.458;2023-07-13T09:36:00;0.82;;;0.82;;
10469;SDS011;5282;47.052;15.458;2023-07-13T09:38:28;0.95;;;0.95;;
10469;SDS011;5282;47.052;15.458;2023-07-13T09:40:59;0.88;;;0.88;;
10469;SDS011;5282;47.052;15.458;2023-07-13T09:43:34;0.80;;;0.80;;
10469;SDS011;5282;47.052;15.458;2023-07-13T09:46:01;0.90;;;0.88;;
10469;SDS011;5282;47.052;15.458;2023-07-13T09:48:35;1.00;;;1.00;;
10469;SDS011;5282;47.052;15.458;2023-07-13T09:51:06;1.13;;;1.13;;
10469;SDS011;5282;47.052;15.458;2023-07-13T09:53:39;1.08;;;1.08;;
10469;SDS011;5282;47.052;15.458;2023-07-13T09:56:18;1.05;;;1.05;;
10469;SDS011;5282;47.052;15.458;2023-07-13T09:58:46;1.10;;;1.10;;
10469;SDS011;5282;47.052;15.458;2023-07-13T10:01:15;1.02;;;1.02;;
10469;SDS011;5282;47.052;15.458;2023-07-13T10:03:52;1.20;;;1.20;;
10469;SDS011;5282;47.052;15.458;2023-07-13T10:06:22;1.10;;;1.10;;
10469;SDS011;5282;47.052;15.458;2023-07-13T10:08:49;1.10;;;1.10;;
10469;SDS011;5282;47.052;15.458;2023-07-13T10:11:18;1.00;;;1.00;;
10469;SDS011;5282;47.052;15.458;2023-07-13T10:13:50;1.20;;;1.20;;
10469;SDS011;5282;47.052;15.458;2023-07-13T10:16:20;1.27;;;1.27;;
10469;SDS011;5282;47.052;15.458;2023-07-13T10:18:49;1.10;;;1.10;;
10469;SDS011;5282;47.052;15.458;2023-07-13T10:21:22;1.13;;;1.13;;
10469;SDS011;5282;47.052;15.458;2023-07-13T10:23:53;1.40;;;1.40;;
10469;SDS011;5282;47.052;15.458;2023-07-13T10:26:24;1.35;;;1.25;;
10469;SDS011;5282;47.052;15.458;2023-07-13T10:28:56;1.02;;;1.02;;
10469;SDS011;5282;47.052;15.458;2023-07-13T10:31:25;1.20;;;1.20;;
10469;SDS011;5282;47.052;15.458;2023-07-13T10:33:53;1.30;;;1.30;;
10469;SDS011;5282;47.052;15.458;2023-07-13T10:36:32;1.25;;;1.15;;
10469;SDS011;5282;47.052;15.458;2023-07-13T10:39:04;1.40;;;1.40;;
10469;SDS011;5282;47.052;15.458;2023-07-13T10:41:34;1.40;;;1.30;;
10469;SDS011;5282;47.052;15.458;2023-07-13T10:44:04;1.13;;;1.13;;
10469;SDS011;5282;47.052;15.458;2023-07-13T10:46:38;1.35;;;1.35;;
10469;SDS011;5282;47.052;15.458;2023-07-13T10:49:06;1.30;;;1.30;;
10469;SDS011;5282;47.052;15.458;2023-07-13T10:51:36;1.27;;;1.27;;
10469;SDS011;5282;47.052;15.458;2023-07-13T10:54:17;1.10;;;1.10;;
10469;SDS011;5282;47.052;15.458;2023-07-13T10:56:48;1.10;;;1.10;;
10469;SDS011;5282;47.052;15.458;2023-07-13T10:59:17;1.02;;;1.02;;
10469;SDS011;5282;47.052;15.458;2023-07-13T11:01:55;1.00;;;1.00;;
10469;SDS011;5282;47.052;15.458;2023-07-13T11:04:26;1.17;;;1.17;;
10469;SDS011;5282;47.052;15.458;2023-07-13T11:06:58;1.48;;;1.30;;
10469;SDS011;5282;47.052;15.458;2023-07-13T11:09:36;1.20;;;1.20;;
10469;SDS011;5282;47.052;15.458;2023-07-13T11:12:10;1.30;;;1.30;;
10469;SDS011;5282;47.052;15.458;2023-07-13T11:15:04;1.00;;;1.00;;
10469;SDS011;5282;47.052;15.458;2023-07-13T11:17:49;1.27;;;1.27;;
10469;SDS011;5282;47.052;15.458;2023-07-13T11:20:22;1.30;;;1.30;;
10469;SDS011;5282;47.052;15.458;2023-07-13T11:23:07;1.20;;;1.20;;
10469;SDS011;5282;47.052;15.458;2023-07-13T11:25:49;1.25;;;1.25;;
10469;SDS011;5282;47.052;15.458;2023-07-13T11:28:17;1.23;;;1.23;;
10469;SDS011;5282;47.052;15.458;2023-07-13T11:30:49;1.10;;;1.10;;
10469;SDS011;5282;47.052;15.458;2023-07-13T11:33:28;1.00;;;1.00;;
10469;SDS011;5282;47.052;15.458;2023-07-13T11:36:14;1.27;;;1.27;;
10469;SDS011;5282;47.052;15.458;2023-07-13T11:38:42;1.33;;;1.20;;
10469;SDS011;5282;47.052;15.458;2023-07-13T11:41:14;1.20;;;1.20;;
10469;SDS011;5282;47.052;15.458;2023-07-13T11:43:43;1.30;;;1.30;;
10469;SDS011;5282;47.052;15.458;2023-07-13T11:46:15;1.30;;;1.30;;
10469;SDS011;5282;47.052;15.458;2023-07-13T11:48:46;1.40;;;1.40;;
10469;SDS011;5282;47.052;15.458;2023-07-13T11:51:17;1.40;;;1.40;;
10469;SDS011;5282;47.052;15.458;2023-07-13T11:53:48;1.35;;;1.30;;
10469;SDS011;5282;47.052;15.458;2023-07-13T11:56:17;1.40;;;1.40;;
10469;SDS011;5282;47.052;15.458;2023-07-13T11:58:47;1.55;;;1.55;;
10469;SDS011;5282;47.052;15.458;2023-07-13T12:01:18;1.63;;;1.52;;
10469;SDS011;5282;47.052;15.458;2023-07-13T12:03:48;1.48;;;1.48;;
10469;SDS011;5282;47.052;15.458;2023-07-13T12:06:23;1.50;;;1.50;;
10469;SDS011;5282;47.052;15.458;2023-07-13T12:08:58;1.10;;;1.10;;
10469;SDS011;5282;47.052;15.458;2023-07-13T12:11:26;1.50;;;1.40;;
10469;SDS011;5282;47.052;15.458;2023-07-13T12:13:53;1.80;;;1.70;;
10469;SDS011;5282;47.052;15.458;2023-07-13T12:16:23;1.33;;;1.33;;
10469;SDS011;5282;47.052;15.458;2023-07-13T12:18:55;1.50;;;1.40;;
10469;SDS011;5282;47.052;15.458;2023-07-13T12:21:26;1.20;;;1.20;;
10469;SDS011;5282;47.052;15.458;2023-07-13T12:24:00;1.48;;;1.38;;
10469;SDS011;5282;47.052;15.458;2023-07-13T12:26:29;1.60;;;1.60;;
10469;SDS011;5282;47.052;15.458;2023-07-13T12:28:58;1.35;;;1.35;;
10469;SDS011;5282;47.052;15.458;2023-07-13T12:31:30;1.27;;;1.27;;
10469;SDS011;5282;47.052;15.458;2023-07-13T12:34:00;1.40;;;1.30;;
10469;SDS011;5282;47.052;15.458;2023-07-13T12:36:31;1.17;;;1.17;;
10469;SDS011;5282;47.052;15.458;2023-07-13T12:39:00;1.65;;;1.55;;
10469;SDS011;5282;47.052;15.458;2023-07-13T12:41:30;1.35;;;1.35;;
10469;SDS011;5282;47.052;15.458;2023-07-13T12:43:59;1.63;;;1.50;;
10469;SDS011;5282;47.052;15.458;2023-07-13T12:46:26;1.60;;;1.60;;
10469;SDS011;5282;47.052;15.458;2023-07-13T12:48:54;1.65;;;1.55;;
10469;SDS011;5282;47.052;15.458;2023-07-13T12:51:26;1.70;;;1.60;;
10469;SDS011;5282;47.052;15.458;2023-07-13T12:54:04;1.40;;;1.40;;
10469;SDS011;5282;47.052;15.458;2023-07-13T12:56:37;1.58;;;1.58;;
10469;SDS011;5282;47.052;15.458;2023-07-13T12:59:04;1.70;;;1.70;;
10469;SDS011;5282;47.052;15.458;2023-07-13T13:01:32;1.70;;;1.60;;
10469;SDS011;5282;47.052;15.458;2023-07-13T13:04:02;1.40;;;1.27;;
10469;SDS011;5282;47.052;15.458;2023-07-13T13:06:32;1.50;;;1.50;;
10469;SDS011;5282;47.052;15.458;2023-07-13T13:09:03;1.60;;;1.60;;
10469;SDS011;5282;47.052;15.458;2023-07-13T13:11:35;1.35;;;1.35;;
10469;SDS011;5282;47.052;15.458;2023-07-13T13:14:03;1.33;;;1.33;;
10469;SDS011;5282;47.052;15.458;2023-07-13T13:16:30;1.50;;;1.50;;
10469;SDS011;5282;47.052;15.458;2023-07-13T13:19:05;1.40;;;1.40;;
10469;SDS011;5282;47.052;15.458;2023-07-13T13:21:42;1.58;;;1.58;;
10469;SDS011;5282;47.052;15.458;2023-07-13T13:24:12;1.48;;;1.48;;
10469;SDS011;5282;47.052;15.458;2023-07-13T13:26:41;1.60;;;1.50;;
10469;SDS011;5282;47.052;15.458;2023-07-13T13:29:12;1.50;;;1.50;;
10469;SDS011;5282;47.052;15.458;2023-07-13T13:31:40;1.80;;;1.70;;
10469;SDS011;5282;47.052;15.458;2023-07-13T13:34:07;1.90;;;1.80;;
10469;SDS011;5282;47.052;15.458;2023-07-13T13:36:35;1.55;;;1.45;;
10469;SDS011;5282;47.052;15.458;2023-07-13T13:39:02;1.67;;;1.67;;
10469;SDS011;5282;47.052;15.458;2023-07-13T13:41:33;2.17;;;1.83;;
10469;SDS011;5282;47.052;15.458;2023-07-13T13:44:00;1.70;;;1.60;;
10469;SDS011;5282;47.052;15.458;2023-07-13T13:46:30;1.57;;;1.47;;
10469;SDS011;5282;47.052;15.458;2023-07-13T13:48:57;1.77;;;1.70;;
10469;SDS011;5282;47.052;15.458;2023-07-13T13:51:24;1.40;;;1.40;;
10469;SDS011;5282;47.052;15.458;2023-07-13T13:53:51;1.63;;;1.40;;
10469;SDS011;5282;47.052;15.458;2023-07-13T13:56:19;1.50;;;1.40;;
10469;SDS011;5282;47.052;15.458;2023-07-13T13:58:50;1.30;;;1.30;;
10469;SDS011;5282;47.052;15.458;2023-07-13T14:01:19;1.40;;;1.40;;
10469;SDS011;5282;47.052;15.458;2023-07-13T14:03:47;1.63;;;1.63;;
10469;SDS011;5282;47.052;15.458;2023-07-13T14:06:17;1.60;;;1.60;;
10469;SDS011;5282;47.052;15.458;2023-07-13T14:08:44;1.93;;;1.70;;
10469;SDS011;5282;47.052;15.458;2023-07-13T14:11:12;1.77;;;1.77;;
10469;SDS011;5282;47.052;15.458;2023-07-13T14:13:42;1.20;;;1.20;;
10469;SDS011;5282;47.052;15.458;2023-07-13T14:16:14;1.40;;;1.40;;
10469;SDS011;5282;47.052;15.458;2023-07-13T14:18:43;1.50;;;1.50;;
10469;SDS011;5282;47.052;15.458;2023-07-13T14:21:11;1.47;;;1.37;;
10469;SDS011;5282;47.052;15.458;2023-07-13T14:23:40;1.70;;;1.60;;
10469;SDS011;5282;47.052;15.458;2023-07-13T14:26:08;1.40;;;1.30;;
10469;SDS011;5282;47.052;15.458;2023-07-13T14:28:39;1.10;;;1.10;;
10469;SDS011;5282;47.052;15.458;2023-07-13T14:31:09;1.40;;;1.30;;
10469;SDS011;5282;47.052;15.458;2023-07-13T14:33:37;1.23;;;1.23;;
10469;SDS011;5282;47.052;15.458;2023-07-13T14:36:13;1.37;;;1.30;;
10469;SDS011;5282;47.052;15.458;2023-07-13T14:38:50;1.53;;;1.53;;
10469;SDS011;5282;47.052;15.458;2023-07-13T14:41:17;1.40;;;1.30;;
10469;SDS011;5282;47.052;15.458;2023-07-13T14:43:45;1.20;;;1.20;;
10469;SDS011;5282;47.052;15.458;2023-07-13T14:46:18;1.20;;;1.20;;
10469;SDS011;5282;47.052;15.458;2023-07-13T14:48:59;1.30;;;1.30;;
10469;SDS011;5282;47.052;15.458;2023-07-13T14:51:29;1.20;;;1.20;;
10469;SDS011;5282;47.052;15.458;2023-07-13T14:53:58;1.50;;;1.50;;
10469;SDS011;5282;47.052;15.458;2023-07-13T14:56:27;1.30;;;1.30;;
10469;SDS011;5282;47.052;15.458;2023-07-13T14:58:55;1.40;;;1.40;;